Time;durP1;ratioP1;P1;durP2;ratioP2;P2;SDS_P1;SDS_P2;PMS_P1;PMS_P2;Temp;Humidity;BMP_temperature;BMP_pressure;BME280_temperature;BME280_humidity;BME280_pressure;Samples;Min_cycle;Max_cycle;Signal;HPM_P1;HPM_P2
2022/02/18 00:00:18;;;;;;;3.53;1.27;;;;;;;11.51;57.15;100805.00;2097281;28;20410;-68
2022/02/18 00:01:18;;;;;;;2.43;1.27;;;;;;;11.61;57.11;100815.06;2097070;28;20212;-67
2022/02/18 00:02:19;;;;;;;2.40;1.10;;;;;;;11.10;56.97;100740.22;2097417;28;20626;-68
2022/02/18 00:03:20;;;;;;;2.27;1.40;;;;;;;11.61;57.16;100820.63;2097009;28;20187;-68
2022/02/18 00:04:20;;;;;;;2.13;1.10;;;;;;;11.69;57.01;100833.09;2097466;28;20191;-68
2022/02/18 00:05:22;;;;;;;2.40;1.23;;;;;;;11.63;57.17;100826.50;2096381;28;20188;-68
2022/02/18 00:06:22;;;;;;;3.03;1.30;;;;;;;11.67;57.34;100827.22;2096482;28;20183;-68
2022/02/18 00:07:24;;;;;;;2.80;1.30;;;;;;;11.70;57.01;100828.34;2097083;28;20416;-68
2022/02/18 00:08:26;;;;;;;1.63;1.10;;;;;;;11.74;56.82;100831.81;2097183;28;20180;-67
2022/02/18 00:09:27;;;;;;;2.27;1.10;;;;;;;11.80;56.75;100850.28;2097152;28;20421;-68
2022/02/18 00:10:27;;;;;;;2.27;1.40;;;;;;;11.80;56.54;100833.63;2097285;28;20919;-68
2022/02/18 00:11:28;;;;;;;3.27;1.07;;;;;;;11.63;56.30;100811.88;2088072;28;20818;-67
2022/02/18 00:12:29;;;;;;;3.00;1.43;;;;;;;11.72;56.28;100837.00;2088443;28;20216;-67
2022/02/18 00:13:29;;;;;;;2.43;1.10;;;;;;;11.50;55.85;100797.09;2097184;28;20184;-68
2022/02/18 00:14:30;;;;;;;2.80;1.13;;;;;;;11.59;54.32;100808.41;2097131;28;20474;-67
2022/02/18 00:15:30;;;;;;;1.77;1.20;;;;;;;11.84;54.13;100833.53;2096408;28;20187;-67
2022/02/18 00:16:31;;;;;;;2.60;1.30;;;;;;;11.90;53.46;100842.91;2096395;28;20197;-67
2022/02/18 00:17:32;;;;;;;2.00;1.07;;;;;;;11.94;52.66;100843.59;2097259;28;20555;-67
2022/02/18 00:18:34;;;;;;;2.30;1.00;;;;;;;11.92;51.77;100834.91;2097287;28;20276;-67
2022/02/18 00:19:35;;;;;;;2.17;0.83;;;;;;;12.03;51.16;100832.63;2097073;28;20422;-67
2022/02/18 00:20:36;;;;;;;2.50;0.93;;;;;;;11.15;50.79;100714.72;2097258;28;20410;-67
2022/02/18 00:21:36;;;;;;;3.33;0.80;;;;;;;12.02;50.84;100853.28;2097037;28;20448;-68
2022/02/18 00:22:37;;;;;;;1.97;0.70;;;;;;;11.96;50.74;100850.28;2097175;28;20179;-68
2022/02/18 00:23:37;;;;;;;2.33;0.90;;;;;;;12.09;50.51;100853.88;2097024;28;20212;-67
2022/02/18 00:24:38;;;;;;;1.97;0.77;;;;;;;12.06;50.36;100854.78;2097189;28;20187;-68
2022/02/18 00:25:40;;;;;;;2.30;1.10;;;;;;;12.06;50.75;100859.53;2096378;28;20266;-67
2022/02/18 00:26:40;;;;;;;3.33;0.87;;;;;;;11.35;50.91;100751.47;2096314;28;20678;-67
2022/02/18 00:27:41;;;;;;;3.33;1.00;;;;;;;11.52;50.62;100778.03;2097099;28;20592;-67
2022/02/18 00:28:42;;;;;;;3.00;1.10;;;;;;;12.08;51.15;100859.88;2088005;28;20199;-68
2022/02/18 00:29:43;;;;;;;2.53;0.87;;;;;;;12.11;50.74;100868.13;2088248;28;20301;-67
2022/02/18 00:30:43;;;;;;;2.03;0.70;;;;;;;12.15;50.86;100881.94;2096719;28;20422;-67
2022/02/18 00:31:44;;;;;;;2.77;1.00;;;;;;;12.21;51.17;100883.75;2097260;28;20653;-68
2022/02/18 00:32:45;;;;;;;3.57;1.03;;;;;;;12.17;50.79;100882.25;2097046;28;20578;-68
2022/02/18 00:33:46;;;;;;;2.67;1.03;;;;;;;12.19;50.47;100874.28;2097124;28;20191;-68
2022/02/18 00:34:46;;;;;;;3.47;1.07;;;;;;;12.22;50.08;100860.28;2096392;28;20425;-68
2022/02/18 00:35:47;;;;;;;2.20;0.80;;;;;;;12.15;50.03;100832.69;2096718;28;20186;-68
2022/02/18 00:36:47;;;;;;;2.63;1.07;;;;;;;12.24;49.79;100832.09;2096723;28;20218;-67
2022/02/18 00:37:49;;;;;;;3.57;1.00;;;;;;;12.23;49.80;100836.06;2097265;28;20211;-68
2022/02/18 00:38:50;;;;;;;2.80;0.80;;;;;;;12.09;49.44;100834.44;2097050;28;20194;-68
2022/02/18 00:39:51;;;;;;;1.57;0.80;;;;;;;12.23;49.73;100849.94;2097294;28;20461;-68
2022/02/18 00:40:51;;;;;;;2.60;1.00;;;;;;;11.92;49.26;100849.59;2096949;28;20189;-68
2022/02/18 00:41:52;;;;;;;2.20;0.90;;;;;;;12.21;49.83;100872.63;2096708;28;20187;-68
2022/02/18 00:42:54;;;;;;;3.50;1.00;;;;;;;12.26;49.78;100876.88;2096499;28;20187;-68
2022/02/18 00:43:54;;;;;;;2.33;0.87;;;;;;;12.28;49.41;100880.78;2097136;28;20568;-68
2022/02/18 00:44:55;;;;;;;2.97;0.90;;;;;;;11.67;49.44;100780.03;2096567;28;20540;-68
2022/02/18 00:45:55;;;;;;;2.63;0.97;;;;;;;12.33;48.81;100871.09;2096264;28;20183;-68
2022/02/18 00:46:56;;;;;;;3.00;0.80;;;;;;;12.35;48.55;100866.69;2097031;28;20270;-68
2022/02/18 00:47:56;;;;;;;3.80;1.07;;;;;;;12.33;48.38;100874.69;2097095;28;20284;-68
2022/02/18 00:48:57;;;;;;;3.37;0.87;;;;;;;12.35;48.13;100882.59;2096849;28;20223;-68
2022/02/18 00:49:58;;;;;;;3.50;0.97;;;;;;;11.83;47.77;100807.00;2097114;28;20582;-68
2022/02/18 00:50:58;;;;;;;3.47;0.97;;;;;;;12.32;47.28;100889.81;2096876;28;20184;-68
2022/02/18 00:51:59;;;;;;;4.07;0.90;;;;;;;12.30;47.74;100889.44;2097088;28;20195;-68
2022/02/18 00:52:59;;;;;;;2.17;0.80;;;;;;;12.32;46.96;100887.03;2097059;28;20192;-68
2022/02/18 00:54:00;;;;;;;2.50;0.73;;;;;;;11.30;46.30;100730.59;2096417;28;20194;-67
2022/02/18 00:55:01;;;;;;;2.77;0.70;;;;;;;12.38;45.65;100885.25;2095712;28;20198;-68
2022/02/18 00:56:01;;;;;;;4.47;0.90;;;;;;;12.40;45.55;100896.72;2096277;28;20187;-68
2022/02/18 00:57:02;;;;;;;3.53;0.80;;;;;;;12.25;45.44;100880.88;2096922;28;20250;-67
2022/02/18 00:58:03;;;;;;;2.37;0.77;;;;;;;12.42;45.31;100894.28;2094066;28;20194;-68
2022/02/18 00:59:03;;;;;;;1.43;0.60;;;;;;;12.42;45.05;100913.75;2094653;28;20433;-67
2022/02/18 01:00:06;;;;;;;3.50;1.00;;;;;;;12.33;45.62;100908.03;2097181;28;20183;-68
2022/02/18 01:01:08;;;;;;;2.50;0.80;;;;;;;12.34;45.24;100917.16;2096819;28;20266;-67
2022/02/18 01:02:09;;;;;;;2.80;0.70;;;;;;;11.84;45.17;100853.75;2097169;28;20932;-68
2022/02/18 01:03:09;;;;;;;3.43;0.80;;;;;;;12.28;44.97;100916.91;2096889;28;20796;-67
2022/02/18 01:04:10;;;;;;;2.07;0.80;;;;;;;12.32;44.83;100906.47;2097104;28;20570;-67
2022/02/18 01:05:10;;;;;;;2.97;0.70;;;;;;;12.22;44.39;100898.41;2096314;28;20210;-67
2022/02/18 01:06:11;;;;;;;2.30;0.60;;;;;;;12.21;44.63;100911.53;2096364;28;20458;-68
2022/02/18 01:07:11;;;;;;;1.30;0.67;;;;;;;11.15;44.24;100732.16;2096999;28;20194;-68
2022/02/18 01:08:12;;;;;;;2.27;0.80;;;;;;;11.89;43.94;100844.88;2097133;28;20176;-68
2022/02/18 01:09:12;;;;;;;1.10;0.50;;;;;;;12.26;44.12;100896.31;2096972;28;20182;-68
2022/02/18 01:10:13;;;;;;;2.10;0.80;;;;;;;12.31;44.07;100895.78;2097092;28;20270;-67
2022/02/18 01:11:14;;;;;;;2.43;0.50;;;;;;;12.25;43.97;100895.53;2096812;28;20544;-68
2022/02/18 01:12:14;;;;;;;2.43;0.60;;;;;;;12.18;43.98;100883.81;2097006;28;20185;-67
2022/02/18 01:13:15;;;;;;;1.03;0.50;;;;;;;12.23;44.18;100892.41;2096911;28;20191;-67
2022/02/18 01:14:15;;;;;;;2.37;0.70;;;;;;;12.26;44.57;100886.00;2097229;28;20191;-68
2022/02/18 01:15:16;;;;;;;2.73;0.60;;;;;;;12.25;44.40;100895.53;2097548;28;20187;-68
2022/02/18 01:16:17;;;;;;;2.73;0.50;;;;;;;12.04;44.76;100876.63;2098223;28;20276;-67
2022/02/18 01:17:18;;;;;;;2.33;0.70;;;;;;;12.17;44.76;100894.16;2098300;28;20184;-67
2022/02/18 01:18:21;;;;;;;2.87;0.77;;;;;;;12.13;45.31;100896.25;2098569;28;20939;-68
2022/02/18 01:19:22;;;;;;;4.47;0.70;;;;;;;12.10;45.16;100894.34;2098249;28;20180;-67
2022/02/18 01:20:22;;;;;;;1.40;0.70;;;;;;;11.44;45.30;100793.28;2089698;28;20435;-68
2022/02/18 01:21:23;;;;;;;2.17;0.60;;;;;;;12.03;45.68;100913.97;2089634;28;20176;-67
2022/02/18 01:22:24;;;;;;;2.40;0.83;;;;;;;12.01;45.63;100896.16;2098601;28;20558;-67
2022/02/18 01:23:24;;;;;;;3.67;0.80;;;;;;;11.96;45.40;100897.50;2098454;28;20422;-67
2022/02/18 01:24:25;;;;;;;4.23;0.73;;;;;;;11.99;45.58;100899.38;2098549;28;20187;-67
2022/02/18 01:25:26;;;;;;;1.73;0.53;;;;;;;11.98;45.52;100903.38;2097546;28;20223;-68
2022/02/18 01:26:26;;;;;;;2.33;0.83;;;;;;;12.01;45.48;100908.06;2097608;28;20190;-68
2022/02/18 01:27:27;;;;;;;2.53;0.80;;;;;;;11.95;45.70;100904.25;2098290;28;20191;-67
2022/02/18 01:28:27;;;;;;;4.00;0.70;;;;;;;11.29;45.00;100811.47;2098491;28;20183;-68
2022/02/18 01:29:28;;;;;;;1.90;0.53;;;;;;;11.96;45.26;100911.38;2098298;28;20186;-68
2022/02/18 01:30:28;;;;;;;2.10;0.73;;;;;;;11.87;45.22;100910.41;2098416;28;20542;-67
2022/02/18 01:31:29;;;;;;;2.53;0.83;;;;;;;11.70;45.65;100900.53;2088998;28;20599;-68
2022/02/18 01:32:30;;;;;;;2.70;0.60;;;;;;;11.88;45.77;100914.78;2089428;28;20294;-68
2022/02/18 01:33:30;;;;;;;2.53;0.80;;;;;;;11.85;45.80;100932.28;2098337;28;20183;-67
2022/02/18 01:34:31;;;;;;;2.10;0.77;;;;;;;11.80;45.91;100928.03;2098310;28;20645;-68
2022/02/18 01:35:32;;;;;;;4.53;0.87;;;;;;;11.87;45.96;100927.06;2097652;28;20183;-67
2022/02/18 01:36:33;;;;;;;2.57;0.80;;;;;;;11.88;46.15;100925.88;2088685;28;20277;-67
2022/02/18 01:37:33;;;;;;;1.70;0.70;;;;;;;11.10;46.14;100815.09;2089410;28;20481;-67
2022/02/18 01:38:34;;;;;;;1.27;0.57;;;;;;;11.85;46.24;100938.63;2098427;28;20176;-68
2022/02/18 01:39:35;;;;;;;1.13;0.60;;;;;;;11.82;45.93;100928.38;2098182;28;20223;-67
2022/02/18 01:40:35;;;;;;;1.03;0.50;;;;;;;11.81;46.19;100923.25;2089444;28;20188;-67
2022/02/18 01:41:37;;;;;;;2.50;0.73;;;;;;;11.72;46.23;100928.63;2089126;28;20474;-67
2022/02/18 01:42:37;;;;;;;4.23;0.90;;;;;;;11.70;46.44;100922.72;2098706;28;20207;-68
2022/02/18 01:43:48;;;;;;;1.70;0.60;;;;;;;10.94;46.47;100815.06;2098135;28;20418;-67
2022/02/18 01:44:50;;;;;;;2.33;0.60;;;;;;;11.69;46.33;100938.59;2097544;28;20175;-67
2022/02/18 01:45:50;;;;;;;4.03;0.80;;;;;;;11.67;46.67;100951.34;2097436;28;20420;-68
2022/02/18 01:46:51;;;;;;;2.47;1.00;;;;;;;11.62;46.92;100946.31;2098155;28;21013;-68
2022/02/18 01:47:52;;;;;;;3.37;0.87;;;;;;;11.58;47.00;100948.38;2098301;28;20190;-67
2022/02/18 01:48:54;;;;;;;2.90;0.60;;;;;;;11.57;47.45;100952.34;2098167;28;20665;-68
2022/02/18 01:49:58;;;;;;;3.73;0.70;;;;;;;11.50;47.25;100944.97;2089445;28;20198;-67
2022/02/18 01:50:58;;;;;;;2.67;0.97;;;;;;;11.60;47.21;100935.66;2089597;28;20427;-68
2022/02/18 01:51:59;;;;;;;1.53;0.63;;;;;;;11.58;47.27;100932.47;2098261;28;20413;-67
2022/02/18 01:53:00;;;;;;;2.20;0.90;;;;;;;11.58;47.51;100937.28;2098095;28;20195;-67
2022/02/18 01:54:02;;;;;;;3.23;0.80;;;;;;;11.52;47.74;100927.91;2098260;28;20730;-68
2022/02/18 01:55:10;;;;;;;2.50;0.70;;;;;;;10.93;47.58;100850.34;2097425;28;20752;-68
2022/02/18 01:56:10;;;;;;;4.10;0.90;;;;;;;11.56;47.39;100942.44;2088441;28;20485;-67
2022/02/18 01:57:13;;;;;;;3.27;0.80;;;;;;;11.32;47.71;100902.94;2089281;28;20429;-68
2022/02/18 01:58:13;;;;;;;2.20;0.80;;;;;;;11.42;47.65;100918.59;2098233;28;20191;-67
2022/02/18 01:59:14;;;;;;;2.23;0.87;;;;;;;11.48;47.98;100938.28;2098114;28;20433;-67
2022/02/18 02:00:18;;;;;;;2.20;0.80;;;;;;;11.47;48.02;100945.06;2098211;28;20199;-67
2022/02/18 02:01:18;;;;;;;3.00;0.83;;;;;;;11.44;47.87;100943.13;2097734;28;20282;-67
2022/02/18 02:02:19;;;;;;;3.07;0.90;;;;;;;11.46;47.87;100941.50;2098221;28;20422;-67
2022/02/18 02:03:20;;;;;;;3.77;0.90;;;;;;;11.41;47.30;100935.66;2097998;28;20183;-67
2022/02/18 02:04:21;;;;;;;4.07;0.83;;;;;;;11.43;47.61;100945.09;2098324;28;20568;-67
2022/02/18 02:05:22;;;;;;;2.73;0.93;;;;;;;10.46;47.59;100801.06;2097285;28;20456;-68
2022/02/18 02:06:24;;;;;;;3.70;0.80;;;;;;;10.56;47.38;100863.81;2097410;28;20213;-67
2022/02/18 02:07:24;;;;;;;2.23;0.90;;;;;;;10.87;47.21;100877.00;2097868;28;20870;-68
2022/02/18 02:08:27;;;;;;;3.07;0.70;;;;;;;11.26;46.87;100934.41;2098354;28;20444;-67
2022/02/18 02:09:28;;;;;;;1.93;0.70;;;;;;;11.26;46.67;100954.63;2097949;28;20211;-67
2022/02/18 02:10:30;;;;;;;2.90;0.80;;;;;;;11.15;46.76;100926.31;2098134;28;20427;-67
2022/02/18 02:11:30;;;;;;;3.03;0.80;;;;;;;10.57;46.25;100862.59;2097919;28;20175;-67
2022/02/18 02:12:40;;;;;;;3.77;0.97;;;;;;;11.27;46.01;100944.31;2098384;28;20216;-67
2022/02/18 02:13:45;;;;;;;4.33;0.80;;;;;;;10.84;46.52;100874.28;2098057;28;20189;-67
2022/02/18 02:14:45;;;;;;;3.53;0.90;;;;;;;11.22;46.54;100953.91;2097290;28;20430;-67
2022/02/18 02:15:45;;;;;;;2.83;0.57;;;;;;;11.24;46.22;100951.50;2097773;28;20181;-67
2022/02/18 02:16:46;;;;;;;4.17;1.00;;;;;;;11.01;46.32;100900.88;2088592;28;20242;-67
2022/02/18 02:17:47;;;;;;;3.87;1.00;;;;;;;11.24;46.18;100934.06;2089273;28;20180;-67
2022/02/18 02:18:48;;;;;;;6.10;1.40;;;;;;;11.22;46.28;100945.56;2097769;28;20190;-67
2022/02/18 02:19:49;;;;;;;3.43;0.87;;;;;;;11.23;46.43;100933.25;2098141;28;20420;-67
2022/02/18 02:20:50;;;;;;;2.57;0.90;;;;;;;11.22;46.59;100923.38;2097933;28;20610;-67
2022/02/18 02:21:52;;;;;;;5.00;1.13;;;;;;;11.14;46.68;100905.34;2097926;28;20436;-67
2022/02/18 02:22:54;;;;;;;3.10;1.00;;;;;;;11.20;46.58;100900.84;2097977;28;20277;-67
2022/02/18 02:23:55;;;;;;;3.27;0.83;;;;;;;11.15;46.49;100881.94;2098051;28;20412;-67
2022/02/18 02:24:57;;;;;;;3.93;0.80;;;;;;;11.19;46.72;100902.06;2097157;28;20428;-68
2022/02/18 02:25:57;;;;;;;3.03;0.80;;;;;;;11.19;46.05;100904.84;2096644;28;20424;-68
2022/02/18 02:26:58;;;;;;;2.67;0.70;;;;;;;11.01;45.06;100865.59;2088397;28;20433;-68
2022/02/18 02:27:58;;;;;;;1.83;0.70;;;;;;;11.21;44.94;100910.72;2089271;28;20271;-67
2022/02/18 02:28:59;;;;;;;3.87;0.83;;;;;;;10.64;44.69;100821.66;2097676;28;20285;-67
2022/02/18 02:30:00;;;;;;;3.37;0.90;;;;;;;11.17;44.10;100917.56;2098009;28;20212;-67
2022/02/18 02:31:00;;;;;;;3.33;0.80;;;;;;;10.65;44.75;100850.16;2097694;28;20306;-67
2022/02/18 02:32:01;;;;;;;3.17;0.90;;;;;;;11.19;44.70;100965.88;2097809;28;20660;-67
2022/02/18 02:33:01;;;;;;;4.00;0.93;;;;;;;11.17;45.13;100971.03;2097843;28;20196;-67
2022/02/18 02:34:03;;;;;;;3.07;0.87;;;;;;;11.13;45.72;100986.22;2097941;28;20199;-67
2022/02/18 02:35:04;;;;;;;2.23;0.90;;;;;;;11.11;45.93;100997.72;2097266;28;20184;-67
2022/02/18 02:36:05;;;;;;;2.90;0.90;;;;;;;10.31;46.06;100899.50;2097006;28;20869;-67
2022/02/18 02:37:05;;;;;;;3.07;0.87;;;;;;;10.97;46.57;101033.28;2097777;28;20222;-67
2022/02/18 02:38:06;;;;;;;1.33;0.63;;;;;;;10.95;45.41;101033.69;2097968;28;20347;-67
2022/02/18 02:39:07;;;;;;;3.17;0.87;;;;;;;10.95;45.34;101021.81;2097800;28;20183;-67
2022/02/18 02:40:07;;;;;;;4.63;0.70;;;;;;;11.06;45.39;101045.38;2097940;28;20505;-67
2022/02/18 02:41:08;;;;;;;3.10;1.00;;;;;;;11.02;44.94;101052.97;2097678;28;20193;-67
2022/02/18 02:42:09;;;;;;;3.40;0.77;;;;;;;10.99;44.72;101059.38;2098026;28;20574;-67
2022/02/18 02:43:09;;;;;;;2.37;0.70;;;;;;;10.98;44.79;101070.88;2097628;28;20542;-67
2022/02/18 02:44:10;;;;;;;5.40;1.07;;;;;;;10.98;44.62;101077.22;2097834;28;20261;-67
2022/02/18 02:45:10;;;;;;;1.50;0.70;;;;;;;10.89;44.43;101073.44;2097042;28;20642;-67
2022/02/18 02:46:11;;;;;;;2.57;0.60;;;;;;;10.84;44.57;101077.47;2099562;28;20192;-67
2022/02/18 02:47:11;;;;;;;1.93;0.80;;;;;;;10.91;44.50;101082.13;2097841;28;20189;-67
2022/02/18 02:48:12;;;;;;;2.70;0.77;;;;;;;10.79;43.63;101077.16;2097636;28;20235;-67
2022/02/18 02:49:13;;;;;;;2.03;0.90;;;;;;;10.53;42.99;101030.91;2097769;28;20485;-67
2022/02/18 02:50:14;;;;;;;1.90;0.60;;;;;;;10.06;42.84;100957.31;2097955;28;20280;-67
2022/02/18 02:51:15;;;;;;;1.50;0.73;;;;;;;10.83;42.99;101098.09;2097486;28;20572;-67
2022/02/18 02:52:15;;;;;;;2.03;0.70;;;;;;;10.82;42.49;101081.88;2097772;28;20452;-67
2022/02/18 02:53:16;;;;;;;1.73;0.83;;;;;;;10.78;42.38;101084.72;2097660;28;20245;-67
2022/02/18 02:54:17;;;;;;;3.73;0.77;;;;;;;10.39;42.71;101033.91;2097891;28;20653;-67
2022/02/18 02:55:19;;;;;;;5.90;0.80;;;;;;;10.72;41.38;101074.53;2096907;28;20192;-67
2022/02/18 02:56:19;;;;;;;2.60;0.70;;;;;;;10.87;41.21;101104.34;2087974;28;20452;-67
2022/02/18 02:57:20;;;;;;;2.20;0.80;;;;;;;10.85;41.94;101106.75;2088589;28;20475;-67
2022/02/18 02:58:20;;;;;;;1.93;0.60;;;;;;;10.82;41.92;101115.91;2098005;28;20251;-67
2022/02/18 02:59:21;;;;;;;1.40;0.57;;;;;;;10.78;41.23;101112.44;2097501;28;20187;-67
2022/02/18 03:00:21;;;;;;;3.03;1.00;;;;;;;10.87;40.65;101118.19;2098013;28;20644;-67
2022/02/18 03:01:22;;;;;;;2.03;0.80;;;;;;;10.78;41.02;101104.13;2088551;28;20242;-67
2022/02/18 03:02:22;;;;;;;2.53;0.77;;;;;;;10.80;41.73;101098.94;2089067;28;20177;-67
2022/02/18 03:03:23;;;;;;;3.13;0.90;;;;;;;10.82;42.11;101101.28;2097659;28;20229;-67
2022/02/18 03:04:24;;;;;;;3.20;0.80;;;;;;;10.83;42.34;101108.38;2097586;28;20653;-67
2022/02/18 03:05:24;;;;;;;2.40;0.67;;;;;;;10.80;42.97;101092.59;2096888;28;20982;-67
2022/02/18 03:06:25;;;;;;;2.13;0.80;;;;;;;9.68;42.46;100923.47;2096891;28;20176;-67
2022/02/18 03:07:26;;;;;;;1.77;0.83;;;;;;;10.77;42.11;101102.53;2097530;28;20616;-67
2022/02/18 03:08:26;;;;;;;4.33;0.97;;;;;;;10.81;42.07;101108.03;2097735;28;20182;-67
2022/02/18 03:09:27;;;;;;;4.27;0.83;;;;;;;10.80;42.20;101118.34;2097544;28;20704;-67
2022/02/18 03:10:27;;;;;;;2.83;0.70;;;;;;;10.81;41.60;101117.13;2097669;28;20191;-67
2022/02/18 03:11:28;;;;;;;3.97;0.90;;;;;;;10.73;41.13;101117.66;2097319;28;20610;-67
2022/02/18 03:12:28;;;;;;;3.63;0.90;;;;;;;10.75;41.46;101123.56;2097662;28;20709;-67
2022/02/18 03:13:30;;;;;;;4.63;1.03;;;;;;;10.15;41.32;101037.88;2097524;28;20184;-67
2022/02/18 03:14:31;;;;;;;2.27;0.80;;;;;;;10.75;41.60;101120.78;2097798;28;20189;-67
2022/02/18 03:15:32;;;;;;;2.60;0.90;;;;;;;10.70;41.70;101116.53;2096604;28;20432;-67
2022/02/18 03:16:33;;;;;;;3.40;0.90;;;;;;;10.75;41.61;101127.13;2096814;28;20179;-67
2022/02/18 03:17:33;;;;;;;5.00;1.10;;;;;;;10.73;41.59;101126.00;2097497;28;20699;-67
2022/02/18 03:18:34;;;;;;;2.97;1.07;;;;;;;10.69;41.74;101116.94;2097521;28;20222;-67
2022/02/18 03:19:34;;;;;;;4.07;1.00;;;;;;;10.66;41.55;101129.66;2097437;28;20751;-67
2022/02/18 03:20:35;;;;;;;3.73;1.03;;;;;;;10.56;41.45;101118.75;2097646;28;20183;-67
2022/02/18 03:21:36;;;;;;;5.50;1.10;;;;;;;10.61;42.14;101129.38;2097481;28;20656;-67
2022/02/18 03:22:36;;;;;;;3.40;1.00;;;;;;;10.17;41.72;101049.31;2088689;28;20226;-67
2022/02/18 03:23:38;;;;;;;2.93;1.13;;;;;;;10.63;41.88;101135.25;2088571;28;20476;-67
2022/02/18 03:24:39;;;;;;;3.07;0.90;;;;;;;9.83;41.78;101018.94;2097496;28;20183;-67
2022/02/18 03:25:39;;;;;;;3.47;1.10;;;;;;;10.42;41.76;101107.88;2096817;28;20520;-67
2022/02/18 03:26:40;;;;;;;4.07;1.20;;;;;;;10.30;41.71;101066.91;2096629;28;20457;-67
2022/02/18 03:27:42;;;;;;;4.80;1.00;;;;;;;10.01;41.87;101049.94;2097261;28;20266;-67
2022/02/18 03:28:44;;;;;;;3.87;0.97;;;;;;;10.42;42.03;101127.28;2097308;28;20186;-67
2022/02/18 03:29:45;;;;;;;6.17;1.30;;;;;;;9.83;42.43;101048.59;2097562;28;20418;-68
2022/02/18 03:30:46;;;;;;;2.83;0.90;;;;;;;10.37;42.38;101128.53;2097274;28;20444;-67
2022/02/18 03:31:46;;;;;;;3.60;1.10;;;;;;;10.34;42.49;101151.53;2097459;28;20194;-67
2022/02/18 03:32:47;;;;;;;3.43;1.07;;;;;;;10.39;42.09;101142.75;2097189;28;20317;-67
2022/02/18 03:33:47;;;;;;;5.17;1.03;;;;;;;10.38;42.34;101146.72;2097435;28;20191;-67
2022/02/18 03:34:48;;;;;;;3.63;1.17;;;;;;;10.30;42.11;101127.88;2096487;28;20185;-67
2022/02/18 03:35:48;;;;;;;6.03;1.33;;;;;;;10.35;42.24;101146.78;2096925;28;20183;-67
2022/02/18 03:36:49;;;;;;;7.73;1.30;;;;;;;10.39;41.74;101156.59;2097105;28;20233;-68
2022/02/18 03:37:49;;;;;;;5.43;1.07;;;;;;;9.61;41.42;101041.78;2097298;28;20194;-68
2022/02/18 03:38:50;;;;;;;4.10;1.10;;;;;;;10.32;41.72;101153.94;2088416;28;20252;-68
2022/02/18 03:39:50;;;;;;;4.40;1.50;;;;;;;10.33;41.61;101154.72;2088550;28;20244;-67
2022/02/18 03:40:51;;;;;;;4.37;1.07;;;;;;;10.28;41.94;101153.22;2097201;28;20194;-68
2022/02/18 03:41:51;;;;;;;2.87;1.00;;;;;;;10.29;41.79;101165.84;2097437;28;20189;-67
2022/02/18 03:42:52;;;;;;;3.13;0.90;;;;;;;10.31;42.05;101162.66;2097313;28;20243;-67
2022/02/18 03:43:53;;;;;;;3.10;1.20;;;;;;;10.22;41.87;101156.84;2097486;28;20216;-67
2022/02/18 03:44:53;;;;;;;3.27;0.70;;;;;;;10.24;41.84;101166.31;2096759;28;20274;-68
2022/02/18 03:45:54;;;;;;;4.17;1.10;;;;;;;10.18;42.06;101159.69;2096560;28;20195;-68
2022/02/18 03:46:54;;;;;;;3.00;1.27;;;;;;;10.16;41.99;101184.25;2097227;28;20285;-68
2022/02/18 03:47:55;;;;;;;2.87;1.00;;;;;;;10.19;42.01;101193.72;2097485;28;20242;-68
2022/02/18 03:48:56;;;;;;;5.83;1.30;;;;;;;10.17;42.31;101193.31;2097157;28;20190;-68
2022/02/18 03:49:56;;;;;;;4.63;1.20;;;;;;;10.22;42.17;101215.03;2097427;28;20188;-67
2022/02/18 03:50:57;;;;;;;3.17;1.03;;;;;;;9.27;42.42;101058.41;2097139;28;20182;-67
2022/02/18 03:51:57;;;;;;;2.90;1.10;;;;;;;10.23;42.45;101211.84;2097355;28;20190;-68
2022/02/18 03:52:58;;;;;;;2.03;0.83;;;;;;;10.21;42.44;101194.88;2097300;28;20218;-68
2022/02/18 03:53:59;;;;;;;3.93;1.20;;;;;;;10.22;42.30;101203.94;2097431;28;20270;-67
2022/02/18 03:54:59;;;;;;;4.90;1.07;;;;;;;10.11;42.10;101187.47;2096301;28;20256;-68
2022/02/18 03:56:00;;;;;;;3.50;1.00;;;;;;;9.39;42.18;101074.44;2096501;28;20182;-68
2022/02/18 03:57:00;;;;;;;4.63;1.10;;;;;;;10.20;42.60;101209.88;2097052;28;20194;-68
2022/02/18 03:58:01;;;;;;;4.17;1.13;;;;;;;10.13;42.59;101198.13;2097364;28;20688;-68
2022/02/18 03:59:02;;;;;;;5.80;1.43;;;;;;;9.81;42.35;101148.66;2097300;28;20683;-68
2022/02/18 04:00:07;;;;;;;4.47;1.07;;;;;;;10.17;42.48;101205.19;2088453;28;20269;-68
2022/02/18 04:01:08;;;;;;;3.13;1.10;;;;;;;10.17;42.44;101207.97;2088854;28;20635;-68
2022/02/18 04:02:08;;;;;;;3.23;1.03;;;;;;;10.16;42.44;101211.16;2097295;28;20423;-68
2022/02/18 04:03:09;;;;;;;7.40;1.30;;;;;;;10.16;42.63;101208.38;2096983;28;20255;-67
2022/02/18 04:04:09;;;;;;;7.63;1.80;;;;;;;9.99;42.51;101185.22;2097375;28;20189;-67
2022/02/18 04:05:10;;;;;;;6.20;1.67;;;;;;;9.74;42.45;101156.28;2096386;28;20186;-68
2022/02/18 04:06:11;;;;;;;5.43;1.70;;;;;;;9.98;42.27;101230.72;2096473;28;20193;-68
2022/02/18 04:07:12;;;;;;;5.93;1.40;;;;;;;9.81;42.27;101215.09;2097118;28;20270;-67
2022/02/18 04:08:13;;;;;;;5.13;1.87;;;;;;;9.74;42.22;101225.47;2097297;28;20189;-67
2022/02/18 04:09:13;;;;;;;4.10;1.10;;;;;;;9.74;42.54;101217.16;2097209;28;20267;-68
2022/02/18 04:10:14;;;;;;;3.33;1.17;;;;;;;9.71;42.58;101221.53;2097311;28;20657;-68
2022/02/18 04:11:14;;;;;;;3.30;1.00;;;;;;;9.69;42.47;101221.16;2097114;28;20698;-67
2022/02/18 04:12:15;;;;;;;3.87;1.10;;;;;;;9.64;42.34;101220.84;2097560;28;20570;-67
2022/02/18 04:13:15;;;;;;;4.57;1.20;;;;;;;9.57;42.78;101237.50;2097207;28;20195;-67
2022/02/18 04:14:16;;;;;;;4.83;1.27;;;;;;;9.59;42.28;101232.34;2097299;28;20184;-67
2022/02/18 04:15:16;;;;;;;4.97;1.30;;;;;;;9.05;42.65;101142.00;2096364;28;20271;-67
2022/02/18 04:16:17;;;;;;;5.47;1.30;;;;;;;9.55;42.96;101234.34;2096350;28;20226;-67
2022/02/18 04:17:17;;;;;;;4.53;1.40;;;;;;;9.53;43.11;101232.00;2088010;28;20184;-68
2022/02/18 04:18:18;;;;;;;4.30;1.40;;;;;;;9.58;42.87;101234.31;2088532;28;20227;-67
2022/02/18 04:19:19;;;;;;;3.97;1.30;;;;;;;9.51;42.87;101226.09;2097150;28;20738;-68
2022/02/18 04:20:19;;;;;;;5.00;1.30;;;;;;;9.38;42.37;101236.09;2097476;28;20183;-68
2022/02/18 04:21:20;;;;;;;5.67;1.20;;;;;;;9.57;42.49;101240.25;2097091;28;20192;-68
2022/02/18 04:22:21;;;;;;;5.50;1.30;;;;;;;9.54;42.99;101247.41;2097438;28;20187;-67
2022/02/18 04:23:21;;;;;;;6.77;1.73;;;;;;;9.54;43.20;101243.88;2097010;28;20199;-67
2022/02/18 04:24:22;;;;;;;5.50;1.07;;;;;;;9.57;42.55;101234.72;2097332;28;20179;-67
2022/02/18 04:25:22;;;;;;;6.37;1.50;;;;;;;9.53;42.77;101231.22;2096456;28;20263;-68
2022/02/18 04:26:23;;;;;;;4.60;1.20;;;;;;;9.62;42.52;101256.41;2096849;28;20187;-68
2022/02/18 04:27:24;;;;;;;4.13;1.40;;;;;;;9.61;42.79;101257.63;2096833;28;20180;-68
2022/02/18 04:28:24;;;;;;;3.47;1.03;;;;;;;8.65;42.92;101120.63;2097978;28;20237;-68
2022/02/18 04:29:25;;;;;;;5.90;1.47;;;;;;;9.50;43.09;101257.72;2097020;28;20188;-67
2022/02/18 04:30:25;;;;;;;3.43;1.20;;;;;;;8.42;43.36;101103.84;2097231;28;20189;-68
2022/02/18 04:31:26;;;;;;;5.30;1.20;;;;;;;9.51;42.79;101252.97;2096757;28;20197;-68
2022/02/18 04:32:27;;;;;;;5.73;1.30;;;;;;;9.54;43.12;101254.94;2097304;28;20291;-68
2022/02/18 04:33:27;;;;;;;6.17;1.17;;;;;;;9.51;42.33;101259.31;2097015;28;20704;-68
2022/02/18 04:34:27;;;;;;;4.07;1.10;;;;;;;9.48;42.68;101249.03;2097167;28;20665;-68
2022/02/18 04:35:28;;;;;;;3.20;1.13;;;;;;;9.37;42.87;101245.59;2096522;28;20558;-67
2022/02/18 04:36:29;;;;;;;4.13;1.10;;;;;;;9.42;43.21;101258.97;2095975;28;20590;-68
2022/02/18 04:37:29;;;;;;;6.10;1.10;;;;;;;9.34;42.92;101254.72;2096980;28;20194;-68
2022/02/18 04:38:30;;;;;;;3.50;1.10;;;;;;;9.33;43.02;101250.38;2097199;28;20188;-68
2022/02/18 04:39:30;;;;;;;6.23;1.33;;;;;;;9.46;42.87;101270.81;2097009;28;20213;-68
2022/02/18 04:40:31;;;;;;;5.57;1.37;;;;;;;9.45;43.25;101272.00;2097293;28;20193;-68
2022/02/18 04:41:33;;;;;;;4.33;1.10;;;;;;;9.44;42.91;101280.72;2096910;28;20251;-67
2022/02/18 04:42:33;;;;;;;5.30;1.27;;;;;;;8.96;42.92;101203.28;2097150;28;20235;-68
2022/02/18 04:43:34;;;;;;;5.27;1.30;;;;;;;9.48;42.94;101281.47;2096954;28;20245;-68